createdAt,value
2023-03-11T00:00:24.741Z,99304.03
2023-03-11T00:02:55.343Z,99304.84
2023-03-11T00:05:25.544Z,99318.41
2023-03-11T00:07:54.178Z,99313.03
2023-03-11T00:10:24.329Z,99168.25
2023-03-11T00:12:52.655Z,99315.88
2023-03-11T00:15:22.620Z,99316.72
2023-03-11T00:17:51.636Z,99312.22
2023-03-11T00:20:21.668Z,99315.06
2023-03-11T00:22:51.201Z,99310.53
2023-03-11T00:25:20.276Z,99304.38
2023-03-11T00:27:48.402Z,99226.03
2023-03-11T00:30:17.560Z,99301.00
2023-03-11T00:32:49.219Z,99305.19
2023-03-11T00:35:21.694Z,99306.03
2023-03-11T00:37:53.566Z,99306.03
2023-03-11T00:40:22.842Z,99305.19
2023-03-11T00:42:51.212Z,99306.88
2023-03-11T00:45:19.423Z,99305.19
2023-03-11T00:47:49.066Z,99315.06
2023-03-11T00:50:19.243Z,99320.41
2023-03-11T00:52:47.984Z,99311.38
2023-03-11T00:55:17.837Z,99210.97
2023-03-11T00:57:46.756Z,99318.41
2023-03-11T01:00:17.045Z,99316.72
2023-03-11T01:02:45.654Z,99255.78
2023-03-11T01:05:15.889Z,99323.75
2023-03-11T01:07:44.120Z,99322.06
2023-03-11T01:10:13.550Z,99320.09
2023-03-11T01:12:42.199Z,99318.41
2023-03-11T01:15:16.269Z,99316.72
2023-03-11T01:17:44.394Z,99311.38
2023-03-11T01:20:15.125Z,99307.69
2023-03-11T01:22:43.751Z,99305.34
2023-03-11T01:25:14.640Z,99315.72
2023-03-11T01:27:42.723Z,99307.69
2023-03-11T01:30:15.590Z,99216.69
2023-03-11T01:32:44.000Z,99295.34
2023-03-11T01:35:16.039Z,99300.34
2023-03-11T01:37:44.533Z,99305.88
2023-03-11T01:40:17.601Z,99309.38
2023-03-11T01:42:45.714Z,99304.03
2023-03-11T01:45:34.800Z,99311.38
2023-03-11T01:48:02.884Z,99325.44
2023-03-11T01:50:36.870Z,99321.22
2023-03-11T01:53:06.802Z,99313.03
2023-03-11T01:55:36.516Z,99311.38
2023-03-11T01:58:07.151Z,99312.41
2023-03-11T02:00:38.326Z,99311.38
2023-03-11T02:03:12.522Z,99325.75
2023-03-11T02:05:42.819Z,99312.56
2023-03-11T02:08:10.971Z,99316.72
2023-03-11T02:10:40.636Z,99321.22
2023-03-11T02:13:10.770Z,99322.06
2023-03-11T02:15:40.159Z,99319.25
2023-03-11T02:18:09.680Z,99240.59
2023-03-11T02:20:46.791Z,99318.41
2023-03-11T02:23:18.535Z,99327.44
2023-03-11T02:25:54.254Z,99322.06
2023-03-11T02:28:24.759Z,99332.78
2023-03-11T02:30:53.985Z,99331.94
2023-03-11T02:33:22.833Z,99332.78
2023-03-11T02:35:50.996Z,99245.06
2023-03-11T02:38:19.277Z,99339.78
2023-03-11T02:40:57.265Z,99330.44
2023-03-11T02:43:34.501Z,99334.44
2023-03-11T02:46:04.051Z,99165.41
2023-03-11T02:48:32.762Z,99336.47
2023-03-11T02:51:01.306Z,99334.44
2023-03-11T02:53:33.576Z,99336.13
2023-03-11T02:56:01.775Z,99337.97
2023-03-11T02:58:31.364Z,99334.44
2023-03-11T03:00:59.573Z,99326.06
2023-03-11T03:03:27.809Z,99329.41
2023-03-11T03:05:56.061Z,99346.16
2023-03-11T03:08:24.248Z,99345.16
2023-03-11T03:10:52.399Z,99348.81
2023-03-11T03:13:20.579Z,99350.50
2023-03-11T03:15:50.192Z,99345.16
2023-03-11T03:18:18.310Z,99357.53
2023-03-11T03:20:46.539Z,99354.00
2023-03-11T03:23:14.834Z,99265.63
2023-03-11T03:25:44.313Z,99362.03
2023-03-11T03:28:12.983Z,99367.38
2023-03-11T03:30:41.407Z,99208.25
2023-03-11T03:33:11.055Z,99357.53
2023-03-11T03:35:44.522Z,99346.84
2023-03-11T03:38:13.248Z,99355.84
2023-03-11T03:40:46.595Z,99362.88
2023-03-11T03:43:14.854Z,99364.88
2023-03-11T03:45:43.159Z,99287.53
2023-03-11T03:48:13.383Z,99361.19
2023-03-11T03:50:42.092Z,99364.88
2023-03-11T03:53:10.812Z,99364.88
2023-03-11T03:55:39.017Z,99369.22
2023-03-11T03:58:07.195Z,99363.88
2023-03-11T04:00:36.814Z,99350.00
2023-03-11T04:03:05.542Z,99361.19
2023-03-11T04:05:35.473Z,99364.03
2023-03-11T04:08:03.650Z,99192.44
2023-03-11T04:10:31.839Z,99260.44
2023-03-11T04:13:00.307Z,99356.84
2023-03-11T04:15:28.522Z,99361.19
2023-03-11T04:17:57.061Z,99358.16
2023-03-11T04:20:25.324Z,99360.38
2023-03-11T04:22:54.879Z,99357.88
2023-03-11T04:25:23.067Z,99369.38
2023-03-11T04:27:52.441Z,99370.56
2023-03-11T04:30:20.798Z,99368.72
2023-03-11T04:32:49.159Z,99375.56
2023-03-11T04:35:17.508Z,99376.41
2023-03-11T04:37:45.833Z,99381.78
2023-03-11T04:40:16.028Z,99385.25
2023-03-11T04:42:44.265Z,99358.81
2023-03-11T04:45:13.462Z,99372.91
2023-03-11T04:47:41.602Z,99371.25
2023-03-11T04:50:10.631Z,99377.25
2023-03-11T04:52:38.798Z,99358.81
2023-03-11T04:55:08.225Z,99368.56
2023-03-11T04:57:38.705Z,99280.84
2023-03-11T05:00:11.785Z,99295.88
2023-03-11T05:02:40.996Z,99303.03
2023-03-11T05:05:10.956Z,99370.22
2023-03-11T05:07:39.171Z,99387.13
2023-03-11T05:10:08.914Z,99216.16
2023-03-11T05:12:38.533Z,99255.38
2023-03-11T05:15:07.873Z,99380.94
2023-03-11T05:17:36.183Z,99376.59
2023-03-11T05:20:08.095Z,99384.59
2023-03-11T05:22:36.668Z,99389.97
2023-03-11T05:25:05.084Z,99319.72
2023-03-11T05:27:33.320Z,99406.00
2023-03-11T05:30:02.948Z,99398.16
2023-03-11T05:32:31.417Z,99398.97
2023-03-11T05:34:59.618Z,99255.59
2023-03-11T05:37:27.851Z,99408.84
2023-03-11T05:39:56.072Z,99416.72
2023-03-11T05:42:24.427Z,99319.22
2023-03-11T05:44:53.103Z,99400.09
2023-03-11T05:47:22.681Z,99400.66
2023-03-11T05:49:51.238Z,99336.97
2023-03-11T05:52:19.352Z,99323.94
2023-03-11T05:54:51.116Z,99405.44
2023-03-11T05:57:19.604Z,99418.69
2023-03-11T05:59:47.780Z,99344.63
2023-03-11T06:02:15.967Z,99420.66
2023-03-11T06:04:46.011Z,99371.09
2023-03-11T06:07:15.569Z,99418.69
2023-03-11T06:09:43.731Z,99424.03
2023-03-11T06:12:11.973Z,99425.72
2023-03-11T06:14:40.111Z,99424.03
2023-03-11T06:17:08.269Z,99428.50
2023-03-11T06:19:36.372Z,99358.34
2023-03-11T06:22:05.889Z,99280.94
2023-03-11T06:24:34.217Z,99433.06
2023-03-11T06:27:02.394Z,99428.50
2023-03-11T06:29:30.516Z,99438.41
2023-03-11T06:31:58.880Z,99433.88
2023-03-11T06:34:27.204Z,99433.06
2023-03-11T06:36:56.055Z,99432.19
2023-03-11T06:39:25.578Z,99414.28
2023-03-11T06:41:53.780Z,99302.72
2023-03-11T06:44:21.963Z,99439.38
2023-03-11T06:46:50.269Z,99442.91
2023-03-11T06:49:18.438Z,99450.06
2023-03-11T06:51:46.733Z,99362.47
2023-03-11T06:54:14.870Z,99443.75
2023-03-11T06:56:44.374Z,99441.88
2023-03-11T06:59:12.591Z,99458.81
2023-03-11T07:01:40.735Z,99459.78
2023-03-11T07:04:08.897Z,99378.34
2023-03-11T07:06:37.105Z,99475.84
2023-03-11T07:09:05.393Z,99416.53
2023-03-11T07:11:33.552Z,99380.06
2023-03-11T07:14:03.155Z,99458.94
2023-03-11T07:16:31.936Z,99458.94
2023-03-11T07:19:03.353Z,99454.44
2023-03-11T07:21:32.779Z,99383.53
2023-03-11T07:24:02.679Z,99459.78
2023-03-11T07:26:32.316Z,99456.28
2023-03-11T07:29:00.652Z,99377.00
2023-03-11T07:31:33.396Z,99459.78
2023-03-11T07:34:03.619Z,99458.09
2023-03-11T07:36:31.879Z,99459.78
2023-03-11T07:39:04.356Z,99458.09
2023-03-11T07:41:33.973Z,99468.78
2023-03-11T07:44:05.212Z,99469.66
2023-03-11T07:46:34.947Z,99474.16
2023-03-11T07:49:03.939Z,99397.06
2023-03-11T07:51:33.913Z,99471.47
2023-03-11T07:54:02.777Z,99481.19
2023-03-11T07:56:33.283Z,99481.19
2023-03-11T07:59:02.568Z,99479.50
2023-03-11T08:01:36.579Z,99476.16
2023-03-11T08:04:08.943Z,99403.38
2023-03-11T08:06:38.638Z,99482.88
2023-03-11T08:09:09.009Z,99483.75
2023-03-11T08:11:38.197Z,99479.50
2023-03-11T08:14:07.161Z,99477.53
2023-03-11T08:16:35.400Z,99478.38
2023-03-11T08:19:03.789Z,99454.03
2023-03-11T08:21:34.054Z,99477.53
2023-03-11T08:24:06.564Z,99394.06
2023-03-11T08:26:35.538Z,99482.88
2023-03-11T08:29:03.689Z,99398.03
2023-03-11T08:31:34.049Z,99483.75
2023-03-11T08:34:04.140Z,99483.75
2023-03-11T08:36:34.435Z,99482.88
2023-03-11T08:39:02.627Z,99480.91
2023-03-11T08:41:30.858Z,99479.50
2023-03-11T08:43:59.033Z,99473.84
2023-03-11T08:46:30.435Z,99480.22
2023-03-11T08:49:01.182Z,99468.78
2023-03-11T08:51:30.643Z,99473.84
2023-03-11T08:54:00.839Z,99473.84
2023-03-11T08:56:29.255Z,99479.22
2023-03-11T08:58:58.008Z,99482.00
2023-03-11T09:01:26.416Z,99477.53
2023-03-11T09:03:54.907Z,99483.88
2023-03-11T09:06:24.714Z,99489.91
2023-03-11T09:08:53.397Z,99322.31
2023-03-11T09:11:23.524Z,99484.56
2023-03-11T09:13:52.229Z,99477.53
2023-03-11T09:16:22.862Z,99479.22
2023-03-11T09:18:51.140Z,99489.91
2023-03-11T09:21:19.783Z,99479.22
2023-03-11T09:23:48.320Z,99318.09
2023-03-11T09:26:17.049Z,99478.22
2023-03-11T09:28:49.640Z,99480.91
2023-03-11T09:31:18.236Z,99474.16
2023-03-11T09:33:47.583Z,99385.66
2023-03-11T09:36:17.448Z,99314.47
2023-03-11T09:38:46.736Z,99470.22
2023-03-11T09:41:23.987Z,99437.00
2023-03-11T09:44:16.048Z,99459.50
2023-03-11T09:47:31.772Z,99459.50
2023-03-11T09:50:27.925Z,99459.50
2023-03-11T09:53:24.045Z,99456.16
2023-03-11T09:55:54.498Z,99455.13
2023-03-11T09:58:39.185Z,99457.81
2023-03-11T10:01:16.683Z,99457.00
2023-03-11T10:03:45.850Z,99373.16
2023-03-11T10:06:18.422Z,99384.41
2023-03-11T10:09:00.449Z,99367.66
2023-03-11T10:11:48.212Z,99454.44
2023-03-11T10:14:32.791Z,99445.44
2023-03-11T10:17:14.597Z,99439.53
2023-03-11T10:19:51.912Z,99442.59
2023-03-11T10:22:29.296Z,99440.22
2023-03-11T10:25:09.953Z,99434.75
2023-03-11T10:27:47.504Z,99430.09
2023-03-11T10:30:24.898Z,99430.25
2023-03-11T10:32:59.798Z,99436.41
2023-03-11T10:35:33.177Z,99432.75
2023-03-11T10:38:07.125Z,99426.00
2023-03-11T10:40:38.326Z,99430.09
2023-03-11T10:43:14.099Z,99438.09
2023-03-11T10:45:45.035Z,99425.72
2023-03-11T10:48:18.996Z,99422.06
2023-03-11T10:50:54.718Z,99417.00
2023-03-11T10:53:23.014Z,99428.22
2023-03-11T10:55:53.030Z,99339.13
2023-03-11T10:58:23.921Z,99424.03
2023-03-11T11:01:03.163Z,99420.03
2023-03-11T11:03:34.137Z,99415.69
2023-03-11T11:06:05.590Z,99332.09
2023-03-11T11:08:35.148Z,99412.19
2023-03-11T11:11:05.923Z,99404.59
2023-03-11T11:13:36.273Z,99414.69
2023-03-11T11:16:07.710Z,99409.34
2023-03-11T11:18:43.985Z,99405.00
2023-03-11T11:21:16.755Z,99404.00
2023-03-11T11:23:49.283Z,99396.97
2023-03-11T11:26:20.591Z,99404.00
2023-03-11T11:29:09.070Z,99406.50
2023-03-11T11:31:38.483Z,99406.50
2023-03-11T11:34:28.064Z,99331.25
2023-03-11T11:36:58.435Z,99394.97
2023-03-11T11:39:28.354Z,99343.88
2023-03-11T11:41:57.955Z,99395.81
2023-03-11T11:44:34.041Z,99399.31
2023-03-11T11:47:10.217Z,99304.53
2023-03-11T11:49:50.350Z,99391.31
2023-03-11T11:52:23.818Z,99298.88
2023-03-11T11:54:54.593Z,99385.09
2023-03-11T11:57:25.462Z,99210.47
2023-03-11T11:59:57.534Z,99378.94
2023-03-11T12:02:44.922Z,99294.84
2023-03-11T12:05:19.847Z,99375.25
2023-03-11T12:08:00.483Z,99364.88
2023-03-11T12:10:33.384Z,99357.53
2023-03-11T12:13:29.186Z,99362.88
2023-03-11T12:16:02.920Z,99350.50
2023-03-11T12:18:37.745Z,99233.34
2023-03-11T12:21:24.532Z,99355.03
2023-03-11T12:24:07.326Z,99199.81
2023-03-11T12:26:39.743Z,99351.34
2023-03-11T12:29:17.113Z,99346.84
2023-03-11T12:31:47.068Z,99344.16
2023-03-11T12:34:17.721Z,99342.31
2023-03-11T12:36:49.552Z,99342.31
2023-03-11T12:39:26.266Z,99337.81
2023-03-11T12:42:20.087Z,99327.44
2023-03-11T12:44:49.393Z,99335.28
2023-03-11T12:47:23.640Z,99332.44
2023-03-11T12:49:55.089Z,99321.75
2023-03-11T12:52:30.063Z,99271.84
2023-03-11T12:55:37.876Z,99318.06
2023-03-11T12:58:38.557Z,99333.28
2023-03-11T13:01:24.346Z,99154.72
2023-03-11T13:04:05.372Z,99319.06
2023-03-11T13:07:21.933Z,99320.09
2023-03-11T13:10:04.663Z,99320.09
2023-03-11T13:12:45.413Z,99313.88
2023-03-11T13:15:32.221Z,99303.19
2023-03-11T13:18:02.455Z,99309.38
2023-03-11T13:20:50.257Z,99139.41
2023-03-11T13:23:30.866Z,99305.88
2023-03-11T13:26:41.383Z,99300.34
2023-03-11T13:29:45.682Z,99302.69
2023-03-11T13:32:46.813Z,99296.19
2023-03-11T13:35:32.605Z,99300.69
2023-03-11T13:38:21.688Z,99222.53
2023-03-11T13:40:52.693Z,99296.19
2023-03-11T13:43:24.605Z,99293.34
2023-03-11T13:45:56.176Z,99288.00
2023-03-11T13:48:30.239Z,99289.97
2023-03-11T13:51:02.974Z,99289.66
2023-03-11T13:53:34.019Z,99191.97
2023-03-11T13:56:02.170Z,99284.31
2023-03-11T13:58:32.113Z,99162.88
2023-03-11T14:01:02.180Z,99282.31
2023-03-11T14:03:35.574Z,99286.81
2023-03-11T14:06:06.843Z,99282.31
2023-03-11T14:08:38.238Z,99178.94
2023-03-11T14:11:17.501Z,99274.94
2023-03-11T14:13:50.164Z,99206.00
2023-03-11T14:16:21.308Z,99193.13
2023-03-11T14:19:02.112Z,99133.03
2023-03-11T14:21:31.271Z,99294.66
2023-03-11T14:24:00.601Z,99217.03
2023-03-11T14:26:31.745Z,99278.63
2023-03-11T14:29:04.230Z,99288.31
2023-03-11T14:31:35.178Z,99196.97
2023-03-11T14:34:06.931Z,99325.09
2023-03-11T14:36:43.565Z,99325.09
2023-03-11T14:39:30.059Z,99347.31
2023-03-11T14:42:05.455Z,99295.69
2023-03-11T14:44:39.024Z,99287.66
2023-03-11T14:47:12.408Z,99264.56
2023-03-11T14:49:42.119Z,99272.41
2023-03-11T14:52:17.964Z,99262.75
2023-03-11T14:54:47.820Z,99269.75
2023-03-11T14:57:23.911Z,99266.25
2023-03-11T14:59:54.794Z,99260.91
2023-03-11T15:02:35.009Z,99262.56
2023-03-11T15:05:07.991Z,99255.91
2023-03-11T15:07:37.646Z,99251.88
2023-03-11T15:10:09.992Z,99195.16
2023-03-11T15:12:42.047Z,99246.84
2023-03-11T15:15:26.206Z,99248.34
2023-03-11T15:17:55.990Z,99246.53
2023-03-11T15:20:31.156Z,99245.19
2023-03-11T15:23:02.066Z,99234.16
2023-03-11T15:25:33.331Z,99217.25
2023-03-11T15:28:15.824Z,99224.44
2023-03-11T15:30:45.529Z,99216.41
2023-03-11T15:33:32.579Z,99212.75
2023-03-11T15:36:00.977Z,99122.13
2023-03-11T15:38:29.295Z,99212.75
2023-03-11T15:41:01.323Z,99218.09
2023-03-11T15:43:32.084Z,99139.69
2023-03-11T15:46:03.755Z,99208.22
2023-03-11T15:48:31.933Z,99212.75
2023-03-11T15:51:01.926Z,99212.75
2023-03-11T15:53:31.393Z,99211.06
2023-03-11T15:56:07.393Z,99209.41
2023-03-11T15:58:37.697Z,99109.28
2023-03-11T16:01:07.755Z,99154.22
2023-03-11T16:03:36.038Z,99061.00
2023-03-11T16:06:04.132Z,99190.16
2023-03-11T16:08:32.271Z,99209.41
2023-03-11T16:11:00.390Z,99216.09
2023-03-11T16:13:28.572Z,99218.75
2023-03-11T16:15:56.695Z,99211.75
2023-03-11T16:18:26.582Z,99219.78
2023-03-11T16:20:56.352Z,99208.22
2023-03-11T16:23:27.814Z,99218.09
2023-03-11T16:26:00.148Z,99219.78
2023-03-11T16:28:28.319Z,99219.78
2023-03-11T16:30:57.326Z,99211.75
2023-03-11T16:33:27.506Z,99208.22
2023-03-11T16:35:55.968Z,99225.13
2023-03-11T16:38:24.488Z,99119.13
2023-03-11T16:40:58.912Z,99207.75
2023-03-11T16:43:28.549Z,99218.94
2023-03-11T16:45:56.960Z,99214.41
2023-03-11T16:48:27.641Z,99218.09
2023-03-11T16:50:55.872Z,99230.47
2023-03-11T16:53:25.237Z,99213.44
2023-03-11T16:55:54.653Z,99219.78
2023-03-11T16:58:23.601Z,99129.81
2023-03-11T17:00:51.789Z,99228.81
2023-03-11T17:03:21.852Z,99191.97
2023-03-11T17:05:51.716Z,99069.38
2023-03-11T17:08:19.989Z,99224.44
2023-03-11T17:10:48.495Z,99230.47
2023-03-11T17:13:19.077Z,99222.44
2023-03-11T17:15:47.427Z,99219.78
2023-03-11T17:18:15.570Z,99225.78
2023-03-11T17:20:44.814Z,99238.50
2023-03-11T17:23:14.449Z,99232.13
2023-03-11T17:25:42.883Z,99237.47
2023-03-11T17:28:11.519Z,99227.78
2023-03-11T17:30:43.406Z,99235.81
2023-03-11T17:33:11.832Z,99235.13
2023-03-11T17:35:40.966Z,99138.84
2023-03-11T17:38:09.940Z,99231.66
2023-03-11T17:40:40.261Z,99086.69
2023-03-11T17:43:08.932Z,99241.16
2023-03-11T17:45:39.949Z,99140.03
2023-03-11T17:48:08.379Z,99242.84
2023-03-11T17:50:39.502Z,99079.00
2023-03-11T17:53:08.285Z,99253.53
2023-03-11T17:55:41.712Z,99180.28
2023-03-11T17:58:10.430Z,99101.75
2023-03-11T18:00:39.562Z,99251.88
2023-03-11T18:03:08.004Z,99176.94
2023-03-11T18:05:38.008Z,99248.84
2023-03-11T18:08:06.445Z,99257.22
2023-03-11T18:10:34.744Z,99258.88
2023-03-11T18:13:04.945Z,99258.56
2023-03-11T18:15:33.070Z,99267.91
2023-03-11T18:18:03.063Z,99267.91
2023-03-11T18:20:31.212Z,99269.59
2023-03-11T18:22:59.409Z,99103.72
2023-03-11T18:25:27.594Z,99264.22
2023-03-11T18:27:55.793Z,99237.44
2023-03-11T18:30:25.624Z,99266.25
2023-03-11T18:32:53.826Z,99271.59
2023-03-11T18:35:22.465Z,99273.28
2023-03-11T18:37:50.924Z,99275.09
2023-03-11T18:40:19.139Z,99273.28
2023-03-11T18:42:47.479Z,99278.63
2023-03-11T18:45:15.667Z,99278.63
2023-03-11T18:47:45.446Z,99194.66
2023-03-11T18:50:14.000Z,99284.97
2023-03-11T18:52:42.531Z,99207.34
2023-03-11T18:55:11.214Z,99273.28
2023-03-11T18:57:41.815Z,99210.38
2023-03-11T19:00:13.469Z,99279.47
2023-03-11T19:02:41.665Z,99282.97
2023-03-11T19:05:11.703Z,99271.94
2023-03-11T19:07:39.897Z,99232.75
2023-03-11T19:10:09.128Z,99280.28
2023-03-11T19:12:38.380Z,99219.72
2023-03-11T19:15:07.926Z,99301.69
2023-03-11T19:17:36.484Z,99205.69
2023-03-11T19:20:08.208Z,99236.94
2023-03-11T19:22:38.823Z,99293.00
2023-03-11T19:25:07.848Z,99299.19
2023-03-11T19:27:39.095Z,99207.66
2023-03-11T19:30:09.897Z,99307.38
2023-03-11T19:32:38.294Z,99211.03
2023-03-11T19:35:07.192Z,99304.53
2023-03-11T19:37:35.492Z,99302.00
2023-03-11T19:40:05.894Z,99307.03
2023-03-11T19:42:34.357Z,99293.44
2023-03-11T19:45:02.663Z,99318.75
2023-03-11T19:47:31.217Z,99312.72
2023-03-11T19:49:59.412Z,99309.06
2023-03-11T19:52:27.695Z,99310.72
2023-03-11T19:54:56.109Z,99310.38
2023-03-11T19:57:26.128Z,99319.75
2023-03-11T19:59:56.523Z,99321.41
2023-03-11T20:02:24.804Z,99249.41
2023-03-11T20:04:53.420Z,99312.69
2023-03-11T20:07:21.616Z,99267.47
2023-03-11T20:09:50.126Z,99333.78
2023-03-11T20:12:18.636Z,99332.13
2023-03-11T20:14:48.437Z,99334.78
2023-03-11T20:17:16.692Z,99338.31
2023-03-11T20:19:45.032Z,99333.78
2023-03-11T20:22:13.899Z,99348.16
2023-03-11T20:24:42.313Z,99349.84
2023-03-11T20:27:11.037Z,99342.81
2023-03-11T20:29:39.316Z,99348.16
2023-03-11T20:32:09.597Z,99344.66
2023-03-11T20:34:38.295Z,99351.84
2023-03-11T20:37:07.672Z,99344.81
2023-03-11T20:39:36.275Z,99352.66
2023-03-11T20:42:04.936Z,99345.47
2023-03-11T20:44:33.161Z,99352.66
2023-03-11T20:47:01.600Z,99356.19
2023-03-11T20:49:31.249Z,99369.56
2023-03-11T20:51:59.756Z,99358.03
2023-03-11T20:54:28.518Z,99358.88
2023-03-11T20:56:56.623Z,99343.56
2023-03-11T20:59:25.057Z,99374.06
2023-03-11T21:01:53.308Z,99218.22
2023-03-11T21:04:24.452Z,99373.25
2023-03-11T21:06:55.424Z,99378.59
2023-03-11T21:09:23.737Z,99382.25
2023-03-11T21:11:52.581Z,99379.91
2023-03-11T21:14:21.296Z,99386.63
2023-03-11T21:16:49.540Z,99386.63
2023-03-11T21:19:18.943Z,99296.53
2023-03-11T21:21:47.353Z,99395.47
2023-03-11T21:24:17.153Z,99390.97
2023-03-11T21:26:45.281Z,99396.31
2023-03-11T21:29:14.207Z,99401.16
2023-03-11T21:31:42.989Z,99400.00
2023-03-11T21:34:11.983Z,99342.31
2023-03-11T21:36:40.377Z,99397.34
2023-03-11T21:39:08.753Z,99230.34
2023-03-11T21:41:38.803Z,99402.69
2023-03-11T21:44:07.006Z,99396.66
2023-03-11T21:46:35.384Z,99407.03
2023-03-11T21:49:03.743Z,99407.88
2023-03-11T21:51:32.090Z,99408.19
2023-03-11T21:54:00.823Z,99412.38
2023-03-11T21:56:30.121Z,99283.44
2023-03-11T21:58:59.872Z,99320.25
2023-03-11T22:01:28.706Z,99410.72
2023-03-11T22:03:57.120Z,99416.06
2023-03-11T22:06:25.452Z,99402.31
2023-03-11T22:08:53.757Z,99327.25
2023-03-11T22:11:21.983Z,99330.94
2023-03-11T22:13:52.222Z,99356.06
2023-03-11T22:16:23.487Z,99423.06
2023-03-11T22:18:52.255Z,99414.38
2023-03-11T22:21:21.902Z,99309.19
2023-03-11T22:23:50.515Z,99418.03
2023-03-11T22:26:18.837Z,99412.38
2023-03-11T22:28:47.162Z,99401.28
2023-03-11T22:31:18.761Z,99425.75
2023-03-11T22:33:48.874Z,99336.28
2023-03-11T22:36:17.163Z,99258.44
2023-03-11T22:38:45.360Z,99423.91
2023-03-11T22:41:14.755Z,99423.06
2023-03-11T22:43:42.942Z,99435.44
2023-03-11T22:46:11.244Z,99258.56
2023-03-11T22:48:39.801Z,99361.19
2023-03-11T22:51:09.987Z,99433.78
2023-03-11T22:53:38.513Z,99436.44
2023-03-11T22:56:12.056Z,99439.13
2023-03-11T22:58:41.414Z,99369.38
2023-03-11T23:01:10.119Z,99449.81
2023-03-11T23:03:39.107Z,99448.16
2023-03-11T23:06:10.273Z,99453.50
2023-03-11T23:08:38.555Z,99449.81
2023-03-11T23:11:10.719Z,99460.53
2023-03-11T23:13:40.324Z,99457.84
2023-03-11T23:16:11.339Z,99458.00
2023-03-11T23:18:40.015Z,99458.88
2023-03-11T23:21:17.802Z,99303.97
2023-03-11T23:23:46.531Z,99464.22
2023-03-11T23:26:15.356Z,99463.38
2023-03-11T23:28:44.256Z,99409.84
2023-03-11T23:31:14.569Z,99481.94
2023-03-11T23:33:43.429Z,99301.44
2023-03-11T23:36:13.455Z,99477.44
2023-03-11T23:38:43.865Z,99473.22
2023-03-11T23:41:14.167Z,99428.94
2023-03-11T23:43:43.085Z,99494.28
2023-03-11T23:46:11.591Z,99493.31
2023-03-11T23:48:41.093Z,99502.31
2023-03-11T23:51:09.828Z,99488.94
2023-03-11T23:53:39.557Z,99479.25
2023-03-11T23:56:13.983Z,99497.97
2023-03-11T23:58:42.711Z,99506.31
